createdAt,value
2023-02-24T00:00:32.929Z,15.35
2023-02-24T00:03:06.071Z,15.45
2023-02-24T00:05:39.340Z,13.38
2023-02-24T00:08:06.609Z,15.13
2023-02-24T00:10:34.038Z,14.18
2023-02-24T00:13:01.073Z,14.25
2023-02-24T00:15:27.983Z,13.70
2023-02-24T00:17:54.871Z,15.65
2023-02-24T00:20:21.883Z,14.65
2023-02-24T00:22:48.787Z,14.70
2023-02-24T00:25:15.931Z,16.60
2023-02-24T00:27:42.976Z,11.90
2023-02-24T00:30:12.069Z,11.73
2023-02-24T00:32:39.200Z,12.52
2023-02-24T00:35:06.943Z,13.32
2023-02-24T00:37:33.807Z,11.55
2023-02-24T00:40:00.688Z,10.85
2023-02-24T00:42:27.796Z,11.32
2023-02-24T00:44:54.655Z,13.48
2023-02-24T00:47:22.544Z,11.63
2023-02-24T00:49:50.470Z,13.20
2023-02-24T00:52:20.058Z,12.82
2023-02-24T00:54:49.255Z,13.82
2023-02-24T00:57:21.536Z,12.57
2023-02-24T00:59:48.587Z,16.13
2023-02-24T01:02:15.988Z,16.95
2023-02-24T01:04:44.502Z,21.02
2023-02-24T01:07:13.015Z,17.98
2023-02-24T01:09:41.968Z,14.75
2023-02-24T01:12:29.632Z,17.05
2023-02-24T01:14:56.555Z,15.05
2023-02-24T01:17:23.642Z,16.02
2023-02-24T01:19:50.675Z,14.30
2023-02-24T01:22:19.818Z,17.13
2023-02-24T01:24:48.658Z,13.48
2023-02-24T01:27:20.276Z,13.55
2023-02-24T01:29:47.939Z,15.77
2023-02-24T01:32:21.229Z,14.63
2023-02-24T01:34:51.548Z,15.50
2023-02-24T01:37:19.712Z,13.70
2023-02-24T01:39:47.123Z,14.18
2023-02-24T01:42:21.157Z,13.02
2023-02-24T01:44:48.155Z,14.43
2023-02-24T01:47:23.524Z,12.40
2023-02-24T01:49:54.101Z,12.02
2023-02-24T01:52:30.456Z,11.02
2023-02-24T01:55:10.510Z,12.65
2023-02-24T01:57:39.140Z,14.85
2023-02-24T02:00:11.274Z,11.07
2023-02-24T02:02:45.347Z,13.55
2023-02-24T02:05:12.530Z,12.88
2023-02-24T02:07:40.982Z,17.60
2023-02-24T02:10:09.574Z,16.30
2023-02-24T02:12:44.484Z,22.15
2023-02-24T02:15:20.296Z,20.10
2023-02-24T02:18:02.810Z,22.20
2023-02-24T02:21:22.725Z,20.23
2023-02-24T02:24:05.003Z,23.05
2023-02-24T02:27:04.410Z,20.02
2023-02-24T02:29:56.449Z,20.73
2023-02-24T02:32:41.919Z,19.58
2023-02-24T02:35:31.739Z,20.70
2023-02-24T02:38:31.467Z,21.73
2023-02-24T02:41:22.686Z,19.48
2023-02-24T02:44:05.009Z,22.35
2023-02-24T02:46:40.416Z,21.05
2023-02-24T02:49:47.952Z,20.73
2023-02-24T02:52:26.859Z,20.25
2023-02-24T02:55:00.544Z,20.98
2023-02-24T02:57:31.137Z,21.48
2023-02-24T03:00:14.203Z,22.98
2023-02-24T03:02:49.581Z,20.27
2023-02-24T03:05:21.445Z,23.35
2023-02-24T03:07:54.824Z,20.27
2023-02-24T03:10:27.783Z,21.48
2023-02-24T03:12:58.567Z,21.58
2023-02-24T03:15:28.098Z,21.65
2023-02-24T03:18:10.547Z,25.05
2023-02-24T03:20:47.198Z,22.00
2023-02-24T03:23:18.981Z,21.98
2023-02-24T03:25:52.185Z,20.40
2023-02-24T03:28:44.472Z,21.58
2023-02-24T03:31:23.041Z,20.85
2023-02-24T03:34:16.199Z,21.67
2023-02-24T03:36:43.565Z,20.15
2023-02-24T03:39:12.484Z,19.88
2023-02-24T03:41:56.199Z,22.90
2023-02-24T03:44:24.854Z,22.95
2023-02-24T03:46:52.724Z,23.02
2023-02-24T03:49:20.544Z,24.33
2023-02-24T03:52:08.851Z,21.15
2023-02-24T03:55:07.028Z,19.95
2023-02-24T03:57:54.952Z,19.83
2023-02-24T04:00:38.629Z,20.67
2023-02-24T04:03:17.167Z,19.98
2023-02-24T04:06:12.328Z,19.92
2023-02-24T04:09:01.343Z,22.38
2023-02-24T04:11:37.558Z,21.52
2023-02-24T04:14:12.891Z,21.10
2023-02-24T04:17:08.006Z,20.90
2023-02-24T04:19:40.604Z,19.67
2023-02-24T04:22:10.595Z,20.20
2023-02-24T04:24:39.549Z,21.67
2023-02-24T04:27:09.805Z,22.25
2023-02-24T04:29:47.282Z,19.52
2023-02-24T04:32:17.673Z,22.20
2023-02-24T04:34:45.593Z,21.52
2023-02-24T04:37:13.781Z,20.42
2023-02-24T04:39:40.701Z,20.58
2023-02-24T04:42:07.616Z,20.85
2023-02-24T04:44:34.665Z,20.67
2023-02-24T04:47:01.527Z,21.13
2023-02-24T04:49:28.411Z,19.77
2023-02-24T04:51:57.214Z,18.92
2023-02-24T04:54:24.410Z,20.25
2023-02-24T04:56:51.980Z,22.35
2023-02-24T04:59:20.362Z,18.10
2023-02-24T05:01:51.658Z,17.25
2023-02-24T05:04:18.645Z,18.05
2023-02-24T05:06:46.565Z,16.85
2023-02-24T05:09:18.133Z,17.88
2023-02-24T05:11:49.051Z,21.02
2023-02-24T05:14:18.327Z,18.00
2023-02-24T05:16:47.793Z,21.10
2023-02-24T05:19:36.910Z,18.08
2023-02-24T05:22:07.024Z,17.05
2023-02-24T05:24:34.729Z,16.35
2023-02-24T05:27:03.925Z,17.42
2023-02-24T05:29:34.313Z,18.92
2023-02-24T05:32:02.560Z,18.50
2023-02-24T05:34:31.762Z,18.67
2023-02-24T05:37:01.691Z,19.30
2023-02-24T05:39:29.300Z,17.73
2023-02-24T05:41:57.393Z,22.38
2023-02-24T05:44:26.712Z,18.30
2023-02-24T05:46:58.948Z,18.85
2023-02-24T05:49:33.097Z,19.42
2023-02-24T05:52:07.425Z,20.77
2023-02-24T05:54:45.344Z,18.48
2023-02-24T05:57:20.943Z,19.40
2023-02-24T05:59:51.479Z,18.20
2023-02-24T06:02:27.637Z,20.30
2023-02-24T06:04:55.677Z,19.63
2023-02-24T06:07:29.675Z,20.70
2023-02-24T06:12:28.199Z,19.33
2023-02-24T06:14:55.545Z,19.73
2023-02-24T06:17:23.090Z,18.20
2023-02-24T06:19:51.805Z,19.73
2023-02-24T06:22:22.968Z,19.67
2023-02-24T06:24:50.442Z,20.63
2023-02-24T06:27:19.319Z,22.75
2023-02-24T06:29:51.372Z,19.13
2023-02-24T06:32:20.181Z,22.48
2023-02-24T06:34:47.090Z,23.88
2023-02-24T06:37:15.350Z,19.60
2023-02-24T06:39:43.430Z,24.42
2023-02-24T06:42:12.371Z,18.15
2023-02-24T06:44:41.163Z,19.73
2023-02-24T06:47:11.436Z,19.75
2023-02-24T06:49:38.275Z,24.75
2023-02-24T06:52:06.042Z,21.70
2023-02-24T06:54:36.021Z,20.17
2023-02-24T06:57:04.163Z,23.75
2023-02-24T06:59:32.345Z,23.70
2023-02-24T07:02:01.986Z,23.23
2023-02-24T07:04:29.680Z,23.45
2023-02-24T07:07:03.723Z,24.95
2023-02-24T07:09:32.157Z,25.73
2023-02-24T07:12:02.665Z,26.75
2023-02-24T07:14:33.212Z,25.30
2023-02-24T07:17:00.416Z,22.13
2023-02-24T07:19:32.460Z,21.73
2023-02-24T07:22:02.244Z,22.35
2023-02-24T07:24:39.236Z,21.10
2023-02-24T07:27:22.122Z,23.02
2023-02-24T07:29:52.906Z,21.45
2023-02-24T07:32:22.615Z,21.30
2023-02-24T07:34:49.661Z,25.67
2023-02-24T07:37:17.017Z,19.58
2023-02-24T07:39:44.042Z,22.02
2023-02-24T07:42:15.184Z,23.73
2023-02-24T07:44:44.591Z,21.25
2023-02-24T07:47:11.595Z,25.77
2023-02-24T07:49:41.184Z,25.70
2023-02-24T07:52:08.595Z,26.30
2023-02-24T07:54:35.770Z,27.10
2023-02-24T07:57:02.735Z,24.08
2023-02-24T07:59:32.625Z,29.00
2023-02-24T08:02:00.649Z,24.63
2023-02-24T08:04:30.108Z,23.90
2023-02-24T08:06:59.095Z,24.25
2023-02-24T08:10:07.035Z,25.38
2023-02-24T08:12:35.370Z,23.38
2023-02-24T08:15:17.270Z,27.77
2023-02-24T08:17:47.549Z,23.55
2023-02-24T08:20:15.366Z,20.90
2023-02-24T08:22:46.708Z,23.67
2023-02-24T08:25:18.841Z,22.38
2023-02-24T08:28:05.087Z,21.63
2023-02-24T08:30:39.362Z,21.20
2023-02-24T08:33:09.242Z,26.13
2023-02-24T08:35:38.949Z,28.70
2023-02-24T08:38:10.172Z,33.58
2023-02-24T08:40:51.869Z,36.08
2023-02-24T08:43:31.246Z,33.38
2023-02-24T08:46:13.397Z,24.38
2023-02-24T08:48:42.543Z,26.95
2023-02-24T08:51:24.576Z,27.52
2023-02-24T08:53:54.517Z,20.77
2023-02-24T08:56:25.377Z,21.35
2023-02-24T08:59:05.579Z,23.30
2023-02-24T09:01:38.574Z,22.50
2023-02-24T09:04:19.112Z,22.10
2023-02-24T09:06:52.425Z,27.92
2023-02-24T09:09:22.547Z,38.30
2023-02-24T09:11:57.410Z,54.05
2023-02-24T09:14:28.774Z,67.93
2023-02-24T09:17:06.545Z,63.40
2023-02-24T09:19:47.912Z,65.03
2023-02-24T09:22:40.944Z,64.45
2023-02-24T09:25:24.225Z,65.93
2023-02-24T09:28:10.547Z,61.53
2023-02-24T09:30:51.368Z,61.08
2023-02-24T09:33:20.975Z,64.38
2023-02-24T09:35:53.921Z,50.25
2023-02-24T09:38:42.341Z,51.85
2023-02-24T09:41:32.126Z,56.90
2023-02-24T09:44:07.930Z,57.72
2023-02-24T09:46:54.133Z,51.85
2023-02-24T09:49:27.490Z,40.42
2023-02-24T09:52:00.804Z,29.20
2023-02-24T09:54:33.778Z,31.63
2023-02-24T09:57:10.591Z,30.10
2023-02-24T10:00:01.668Z,29.33
2023-02-24T10:02:44.522Z,33.00
2023-02-24T10:05:27.945Z,32.88
2023-02-24T10:07:57.258Z,40.25
2023-02-24T10:10:30.230Z,36.08
2023-02-24T10:13:30.556Z,35.40
2023-02-24T10:16:07.258Z,39.75
2023-02-24T10:19:01.218Z,39.28
2023-02-24T10:21:48.364Z,43.38
2023-02-24T10:24:29.418Z,46.42
2023-02-24T10:27:17.687Z,40.42
2023-02-24T10:30:11.221Z,49.60
2023-02-24T10:32:47.257Z,42.23
2023-02-24T10:35:18.847Z,31.85
2023-02-24T10:37:46.387Z,26.40
2023-02-24T10:40:24.905Z,25.13
2023-02-24T10:43:02.588Z,28.98
2023-02-24T10:45:34.799Z,29.70
2023-02-24T10:48:07.533Z,42.90
2023-02-24T10:50:55.195Z,58.20
2023-02-24T10:53:37.663Z,49.83
2023-02-24T10:56:41.729Z,38.72
2023-02-24T10:59:25.487Z,29.83
2023-02-24T11:02:06.757Z,32.78
2023-02-24T11:04:54.193Z,29.80
2023-02-24T11:07:44.025Z,32.63
2023-02-24T11:10:26.245Z,30.63
2023-02-24T11:13:14.200Z,26.33
2023-02-24T11:16:08.044Z,29.73
2023-02-24T11:18:36.122Z,25.17
2023-02-24T11:21:06.611Z,24.83
2023-02-24T11:23:40.684Z,23.02
2023-02-24T11:26:20.898Z,25.65
2023-02-24T11:29:12.111Z,23.80
2023-02-24T11:32:06.625Z,29.42
2023-02-24T11:34:52.510Z,26.73
2023-02-24T11:37:20.431Z,24.58
2023-02-24T11:39:56.674Z,28.67
2023-02-24T11:42:31.422Z,28.10
2023-02-24T11:46:00.852Z,26.52
2023-02-24T11:48:37.476Z,24.13
2023-02-24T11:51:22.722Z,25.23
2023-02-24T11:54:03.391Z,22.85
2023-02-24T11:56:50.086Z,23.75
2023-02-24T11:59:42.512Z,23.80
2023-02-24T12:02:38.662Z,22.45
2023-02-24T12:05:10.671Z,22.17
2023-02-24T12:08:00.887Z,23.17
2023-02-24T12:10:39.798Z,20.15
2023-02-24T12:13:14.474Z,20.52
2023-02-24T12:15:47.957Z,20.40
2023-02-24T12:18:34.669Z,16.95
2023-02-24T12:21:26.471Z,16.23
2023-02-24T12:23:53.815Z,18.80
2023-02-24T12:26:48.048Z,18.52
2023-02-24T12:29:33.227Z,17.48
2023-02-24T12:32:25.198Z,16.52
2023-02-24T12:35:19.938Z,14.95
2023-02-24T12:38:12.569Z,15.02
2023-02-24T12:40:56.952Z,15.18
2023-02-24T12:44:06.162Z,15.23
2023-02-24T12:46:38.491Z,14.73
2023-02-24T12:49:42.731Z,15.27
2023-02-24T12:52:50.778Z,15.52
2023-02-24T12:55:36.868Z,13.32
2023-02-24T12:58:26.028Z,14.43
2023-02-24T13:01:08.199Z,13.27
2023-02-24T13:03:57.743Z,14.45
2023-02-24T13:06:49.402Z,14.90
2023-02-24T13:09:37.017Z,14.98
2023-02-24T13:12:18.429Z,15.77
2023-02-24T13:14:45.991Z,15.15
2023-02-24T13:17:12.881Z,16.27
2023-02-24T13:19:41.598Z,15.88
2023-02-24T13:22:11.443Z,13.57
2023-02-24T13:24:43.570Z,14.70
2023-02-24T13:27:13.394Z,13.85
2023-02-24T13:29:48.659Z,17.45
2023-02-24T13:32:38.829Z,15.85
2023-02-24T13:35:16.429Z,13.80
2023-02-24T13:37:45.735Z,16.38
2023-02-24T13:40:18.241Z,11.82
2023-02-24T13:43:05.623Z,14.85
2023-02-24T13:45:39.788Z,13.25
2023-02-24T13:48:20.986Z,13.43
2023-02-24T13:51:22.270Z,12.18
2023-02-24T13:54:08.132Z,15.32
2023-02-24T13:56:37.965Z,13.68
2023-02-24T13:59:42.706Z,13.77
2023-02-24T14:02:15.249Z,13.55
2023-02-24T14:04:54.255Z,16.45
2023-02-24T14:07:28.579Z,16.88
2023-02-24T14:10:02.268Z,15.45
2023-02-24T14:12:32.589Z,15.10
2023-02-24T14:15:00.191Z,13.82
2023-02-24T14:17:32.977Z,15.70
2023-02-24T14:20:11.612Z,14.23
2023-02-24T14:22:53.826Z,13.95
2023-02-24T14:25:22.498Z,15.65
2023-02-24T14:27:53.584Z,17.48
2023-02-24T14:30:39.180Z,15.07
2023-02-24T14:33:08.445Z,15.38
2023-02-24T14:35:39.348Z,15.23
2023-02-24T14:38:06.471Z,16.63
2023-02-24T14:40:33.691Z,15.65
2023-02-24T14:43:00.647Z,16.65
2023-02-24T14:45:29.150Z,14.25
2023-02-24T14:47:57.105Z,19.95
2023-02-24T14:50:34.614Z,14.68
2023-02-24T14:53:14.672Z,13.90
2023-02-24T14:55:46.977Z,15.77
2023-02-24T14:58:21.815Z,17.65
2023-02-24T15:00:50.981Z,15.63
2023-02-24T15:03:34.982Z,15.52
2023-02-24T15:06:08.920Z,16.58
2023-02-24T15:11:16.570Z,17.42
2023-02-24T15:14:07.023Z,16.17
2023-02-24T15:16:33.982Z,18.35
2023-02-24T15:19:01.803Z,20.40
2023-02-24T15:21:28.869Z,14.98
2023-02-24T15:24:18.565Z,14.38
2023-02-24T15:26:53.083Z,16.02
2023-02-24T15:29:22.933Z,14.38
2023-02-24T15:31:51.584Z,14.30
2023-02-24T15:34:31.155Z,16.50
2023-02-24T15:37:03.186Z,16.33
2023-02-24T15:39:33.266Z,14.45
2023-02-24T15:42:28.722Z,18.35
2023-02-24T15:45:01.316Z,13.30
2023-02-24T15:47:32.543Z,17.08
2023-02-24T15:49:59.656Z,13.25
2023-02-24T15:52:28.832Z,12.75
2023-02-24T15:54:58.038Z,14.07
2023-02-24T15:57:26.024Z,15.27
2023-02-24T15:59:52.888Z,22.08
2023-02-24T16:02:21.766Z,19.58
2023-02-24T16:04:49.741Z,17.45
2023-02-24T16:07:22.500Z,17.48
2023-02-24T16:09:52.568Z,17.35
2023-02-24T16:12:23.232Z,16.67
2023-02-24T16:14:55.860Z,16.27
2023-02-24T16:17:41.474Z,18.38
2023-02-24T16:20:14.101Z,22.08
2023-02-24T16:22:41.065Z,20.08
2023-02-24T16:25:08.342Z,15.23
2023-02-24T16:27:36.317Z,15.30
2023-02-24T16:30:03.601Z,16.35
2023-02-24T16:32:30.634Z,16.08
2023-02-24T16:34:57.615Z,15.90
2023-02-24T16:37:27.916Z,12.38
2023-02-24T16:39:55.166Z,15.52
2023-02-24T16:42:22.394Z,12.48
2023-02-24T16:44:50.305Z,14.68
2023-02-24T16:47:22.388Z,15.35
2023-02-24T16:49:49.827Z,16.02
2023-02-24T16:52:20.710Z,16.02
2023-02-24T16:54:48.354Z,15.25
2023-02-24T16:57:16.194Z,15.45
2023-02-24T16:59:43.456Z,19.67
2023-02-24T17:02:23.722Z,15.30
2023-02-24T17:04:50.745Z,16.58
2023-02-24T17:07:20.400Z,17.40
2023-02-24T17:09:47.448Z,19.17
2023-02-24T17:12:17.334Z,18.70
2023-02-24T17:14:44.211Z,21.20
2023-02-24T17:17:11.836Z,18.80
2023-02-24T17:19:39.052Z,24.17
2023-02-24T17:22:05.977Z,18.30
2023-02-24T17:24:32.862Z,18.90
2023-02-24T17:27:00.572Z,17.02
2023-02-24T17:29:27.918Z,16.27
2023-02-24T17:31:54.977Z,16.42
2023-02-24T17:34:24.039Z,17.38
2023-02-24T17:36:51.027Z,14.93
2023-02-24T17:39:17.898Z,15.63
2023-02-24T17:41:44.859Z,14.43
2023-02-24T17:44:11.737Z,16.20
2023-02-24T17:46:38.795Z,13.98
2023-02-24T17:49:05.789Z,12.95
2023-02-24T17:51:32.677Z,16.70
2023-02-24T17:53:59.673Z,21.85
2023-02-24T17:56:26.518Z,13.07
2023-02-24T17:58:58.714Z,19.98
2023-02-24T18:01:26.509Z,13.57
2023-02-24T18:03:55.823Z,13.02
2023-02-24T18:06:23.510Z,14.25
2023-02-24T18:08:50.718Z,10.82
2023-02-24T18:11:18.963Z,15.23
2023-02-24T18:13:47.603Z,15.35
2023-02-24T18:16:16.478Z,13.23
2023-02-24T18:18:43.373Z,14.35
2023-02-24T18:21:10.248Z,19.50
2023-02-24T18:23:40.291Z,19.75
2023-02-24T18:26:08.812Z,19.20
2023-02-24T18:28:35.829Z,21.35
2023-02-24T18:31:10.692Z,17.67
2023-02-24T18:33:37.773Z,18.13
2023-02-24T18:36:05.188Z,11.70
2023-02-24T18:38:32.640Z,16.17
2023-02-24T18:41:01.275Z,11.68
2023-02-24T18:43:29.190Z,14.55
2023-02-24T18:46:01.050Z,14.15
2023-02-24T18:48:29.457Z,14.02
2023-02-24T18:50:58.027Z,15.48
2023-02-24T18:53:26.845Z,13.48
2023-02-24T18:56:05.079Z,15.75
2023-02-24T18:58:32.638Z,16.48
2023-02-24T19:00:59.767Z,18.05
2023-02-24T19:03:26.856Z,17.08
2023-02-24T19:05:53.785Z,15.70
2023-02-24T19:08:20.726Z,20.75
2023-02-24T19:10:47.546Z,18.05
2023-02-24T19:13:14.513Z,14.88
2023-02-24T19:15:41.557Z,15.55
2023-02-24T19:18:08.428Z,16.98
2023-02-24T19:20:35.317Z,13.10
2023-02-24T19:23:02.369Z,16.83
2023-02-24T19:25:29.255Z,16.00
2023-02-24T19:27:56.130Z,15.35
2023-02-24T19:30:23.034Z,17.02
2023-02-24T19:32:50.010Z,15.40
2023-02-24T19:35:17.281Z,16.88
2023-02-24T19:37:44.216Z,18.30
2023-02-24T19:40:11.782Z,18.92
2023-02-24T19:42:38.677Z,19.27
2023-02-24T19:45:05.925Z,18.10
2023-02-24T19:47:32.815Z,18.25
2023-02-24T19:49:59.657Z,15.63
2023-02-24T19:52:26.463Z,18.17
2023-02-24T19:54:54.357Z,19.73
2023-02-24T19:57:21.228Z,18.25
2023-02-24T19:59:51.897Z,19.25
2023-02-24T20:02:18.915Z,20.15
2023-02-24T20:04:45.974Z,19.27
2023-02-24T20:07:12.892Z,21.13
2023-02-24T20:09:42.953Z,20.98
2023-02-24T20:12:10.424Z,22.48
2023-02-24T20:14:37.302Z,22.67
2023-02-24T20:17:04.245Z,23.35
2023-02-24T20:19:33.330Z,21.52
2023-02-24T20:22:01.089Z,20.63
2023-02-24T20:24:28.069Z,19.38
2023-02-24T20:26:55.020Z,21.10
2023-02-24T20:29:22.271Z,21.70
2023-02-24T20:31:49.924Z,22.17
2023-02-24T20:34:17.823Z,26.17
2023-02-24T20:36:44.709Z,19.90
2023-02-24T20:39:14.230Z,23.42
2023-02-24T20:41:41.540Z,27.05
2023-02-24T20:44:08.700Z,20.98
2023-02-24T20:46:36.207Z,22.02
2023-02-24T20:49:06.610Z,23.65
2023-02-24T20:51:35.728Z,22.35
2023-02-24T20:54:02.936Z,20.52
2023-02-24T20:56:34.120Z,25.15
2023-02-24T20:59:04.669Z,23.17
2023-02-24T21:01:32.684Z,24.20
2023-02-24T21:04:00.414Z,27.77
2023-02-24T21:06:28.218Z,27.48
2023-02-24T21:08:55.862Z,31.38
2023-02-24T21:11:23.555Z,31.73
2023-02-24T21:13:51.552Z,32.58
2023-02-24T21:16:20.523Z,32.38
2023-02-24T21:18:48.988Z,34.80
2023-02-24T21:21:16.784Z,32.20
2023-02-24T21:23:44.545Z,34.40
2023-02-24T21:26:12.774Z,35.15
2023-02-24T21:28:40.674Z,27.80
2023-02-24T21:31:17.513Z,28.52
2023-02-24T21:33:44.805Z,28.90
2023-02-24T21:36:14.202Z,29.05
2023-02-24T21:38:41.723Z,28.48
2023-02-24T21:41:13.501Z,27.08
2023-02-24T21:43:40.841Z,26.58
2023-02-24T21:46:12.258Z,31.92
2023-02-24T21:48:40.731Z,29.63
2023-02-24T21:51:09.925Z,36.70
2023-02-24T21:53:39.422Z,36.03
2023-02-24T21:56:16.528Z,39.53
2023-02-24T21:58:48.852Z,37.03
2023-02-24T22:01:19.225Z,32.95
2023-02-24T22:03:46.158Z,27.67
2023-02-24T22:06:15.087Z,26.52
2023-02-24T22:08:45.748Z,26.58
2023-02-24T22:11:15.571Z,23.77
2023-02-24T22:13:43.594Z,22.08
2023-02-24T22:16:14.020Z,20.50
2023-02-24T22:18:41.231Z,23.20
2023-02-24T22:21:09.648Z,22.50
2023-02-24T22:23:36.570Z,23.52
2023-02-24T22:26:08.968Z,19.85
2023-02-24T22:28:38.448Z,21.92
2023-02-24T22:31:06.865Z,17.98
2023-02-24T22:33:35.935Z,19.08
2023-02-24T22:36:08.238Z,20.00
2023-02-24T22:38:37.100Z,18.63
2023-02-24T22:41:06.744Z,16.77
2023-02-24T22:43:33.802Z,17.27
2023-02-24T22:46:07.005Z,16.90
2023-02-24T22:48:36.803Z,15.18
2023-02-24T22:51:06.382Z,17.30
2023-02-24T22:53:35.584Z,17.65
2023-02-24T22:56:02.484Z,16.80
2023-02-24T22:58:29.430Z,15.65
2023-02-24T23:00:57.011Z,17.33
2023-02-24T23:03:27.449Z,15.07
2023-02-24T23:05:59.427Z,16.25
2023-02-24T23:08:27.929Z,16.13
2023-02-24T23:10:55.456Z,15.20
2023-02-24T23:13:22.704Z,14.63
2023-02-24T23:15:49.681Z,15.60
2023-02-24T23:18:17.235Z,15.10
2023-02-24T23:20:45.066Z,14.35
2023-02-24T23:23:11.990Z,14.45
2023-02-24T23:25:39.038Z,16.80
2023-02-24T23:28:06.700Z,19.38
2023-02-24T23:30:35.405Z,24.77
2023-02-24T23:33:03.165Z,23.85
2023-02-24T23:35:30.380Z,24.80
2023-02-24T23:37:57.396Z,26.75
2023-02-24T23:40:26.155Z,24.00
2023-02-24T23:42:53.426Z,24.52
2023-02-24T23:45:20.594Z,21.55
2023-02-24T23:47:47.461Z,18.73
2023-02-24T23:50:14.466Z,17.50
2023-02-24T23:52:41.413Z,17.42
2023-02-24T23:55:08.800Z,16.08
2023-02-24T23:57:35.795Z,16.45
